Time;durP1;ratioP1;P1;durP2;ratioP2;P2;SDS_P1;SDS_P2;PMS_P1;PMS_P2;Temp;Humidity;BMP_temperature;BMP_pressure;BME280_temperature;BME280_humidity;BME280_pressure;Samples;Min_cycle;Max_cycle;Signal;HPM_P1;HPM_P2
2022/07/12 00:01:03;;;;;;;4.30;4.00;;;17.70;99.90;;;;;;5010677;28;20258;-59
2022/07/12 00:03:29;;;;;;;5.20;4.80;;;17.70;99.90;;;;;;5010646;28;20434;-59
2022/07/12 00:05:56;;;;;;;4.50;4.20;;;17.80;99.90;;;;;;5005800;28;20186;-59
2022/07/12 00:08:22;;;;;;;5.05;4.50;;;17.60;99.90;;;;;;5008839;28;20667;-59
2022/07/12 00:10:47;;;;;;;4.80;4.40;;;18.00;99.90;;;;;;5010070;28;20194;-59
2022/07/12 00:13:13;;;;;;;5.20;4.80;;;17.60;99.90;;;;;;5009570;28;20281;-59
2022/07/12 00:15:38;;;;;;;5.03;4.63;;;17.50;99.90;;;;;;5009940;28;20210;-59
2022/07/12 00:18:04;;;;;;;4.77;4.37;;;17.20;99.90;;;;;;5009183;28;20186;-59
2022/07/12 00:20:30;;;;;;;5.40;4.70;;;17.50;99.90;;;;;;5007443;28;20187;-59
2022/07/12 00:22:55;;;;;;;5.20;4.80;;;17.40;99.90;;;;;;5004441;28;20305;-59
2022/07/12 00:25:21;;;;;;;5.03;4.63;;;17.30;99.90;;;;;;5009477;28;20553;-59
2022/07/12 00:27:47;;;;;;;5.20;4.80;;;17.40;99.90;;;;;;5004843;28;20561;-59
2022/07/12 00:30:12;;;;;;;5.00;4.60;;;17.20;99.90;;;;;;5003181;28;20802;-59
2022/07/12 00:32:38;;;;;;;5.40;5.00;;;17.20;99.90;;;;;;5007666;28;20210;-59
2022/07/12 00:35:05;;;;;;;4.70;4.30;;;17.30;99.90;;;;;;5002513;28;20580;-59
2022/07/12 00:37:31;;;;;;;5.88;5.38;;;17.20;99.90;;;;;;4988821;28;20558;-59
2022/07/12 00:39:57;;;;;;;5.30;4.80;;;16.90;99.90;;;;;;5002200;28;20183;-59
2022/07/12 00:42:24;;;;;;;5.47;5.07;;;17.10;99.90;;;;;;5000320;28;20210;-58
2022/07/12 00:44:49;;;;;;;5.40;5.00;;;16.90;99.90;;;;;;5012915;28;20939;-59
2022/07/12 00:47:36;;;;;;;5.67;4.73;;;16.90;99.90;;;;;;4988655;28;20262;-59
2022/07/12 00:50:04;;;;;;;5.22;4.82;;;17.00;99.90;;;;;;4991664;28;20277;-59
2022/07/12 00:52:29;;;;;;;5.50;5.10;;;16.70;99.90;;;;;;5014089;28;20718;-59
2022/07/12 00:54:55;;;;;;;4.87;4.47;;;16.80;99.90;;;;;;5013564;28;20222;-59
2022/07/12 00:57:21;;;;;;;5.70;5.20;;;16.90;99.90;;;;;;5013360;28;20179;-59
2022/07/12 00:59:46;;;;;;;5.23;4.83;;;16.90;99.90;;;;;;5009304;28;20194;-59
2022/07/12 01:02:12;;;;;;;5.07;4.67;;;17.00;99.90;;;;;;5005662;28;20666;-59
2022/07/12 01:04:37;;;;;;;5.57;5.17;;;17.00;99.90;;;;;;5006552;28;20199;-58
2022/07/12 01:07:04;;;;;;;5.90;5.40;;;16.80;99.90;;;;;;5005992;28;20193;-58
2022/07/12 01:09:29;;;;;;;5.85;5.35;;;16.60;99.90;;;;;;5014167;28;20195;-58
2022/07/12 01:11:55;;;;;;;5.13;4.70;;;16.70;99.90;;;;;;5011630;28;20210;-59
2022/07/12 01:14:21;;;;;;;5.43;5.03;;;16.90;99.90;;;;;;5013010;28;20739;-59
2022/07/12 01:16:47;;;;;;;5.30;4.87;;;16.70;99.90;;;;;;5009219;28;20195;-59
2022/07/12 01:19:20;;;;;;;6.43;5.00;;;16.70;99.90;;;;;;5008842;28;20211;-59
2022/07/12 01:21:48;;;;;;;4.63;4.32;;;16.70;99.90;;;;;;5013011;28;20553;-59
2022/07/12 01:24:14;;;;;;;4.93;4.30;;;16.70;99.90;;;;;;5014260;28;20183;-58
2022/07/12 01:26:40;;;;;;;5.80;5.20;;;16.70;99.90;;;;;;5013246;28;20190;-59
2022/07/12 01:29:07;;;;;;;5.60;5.10;;;16.50;99.90;;;;;;5014733;28;20440;-58
2022/07/12 01:31:35;;;;;;;5.60;5.15;;;16.60;99.90;;;;;;5014289;28;20484;-59
2022/07/12 01:34:06;;;;;;;5.43;5.00;;;16.30;99.90;;;;;;5010892;28;21671;-59
2022/07/12 01:36:32;;;;;;;5.32;4.93;;;16.50;99.90;;;;;;5010421;28;20591;-59
2022/07/12 01:38:58;;;;;;;5.38;4.70;;;16.20;99.90;;;;;;5012273;28;20210;-59
2022/07/12 01:41:24;;;;;;;5.40;5.00;;;16.50;99.90;;;;;;5012877;28;20245;-59
2022/07/12 01:43:52;;;;;;;5.57;5.17;;;16.30;99.90;;;;;;5009837;28;20187;-58
2022/07/12 01:46:18;;;;;;;5.50;5.00;;;16.30;99.90;;;;;;5013295;28;20950;-59
2022/07/12 01:48:44;;;;;;;5.40;5.00;;;16.50;99.90;;;;;;5012085;28;20205;-59
2022/07/12 01:51:10;;;;;;;5.10;4.60;;;16.30;99.90;;;;;;5010433;28;20262;-59
2022/07/12 01:53:36;;;;;;;5.57;5.17;;;16.20;99.90;;;;;;5012346;28;20648;-59
2022/07/12 01:56:03;;;;;;;5.55;5.10;;;16.30;99.90;;;;;;5008060;28;20454;-59
2022/07/12 01:58:29;;;;;;;5.15;4.75;;;16.20;99.90;;;;;;5010545;28;20230;-59
2022/07/12 02:00:56;;;;;;;5.97;5.57;;;16.50;99.90;;;;;;5013139;28;20189;-59
2022/07/12 02:03:21;;;;;;;6.15;5.13;;;16.40;99.90;;;;;;5012727;28;20187;-59
2022/07/12 02:05:47;;;;;;;5.50;5.00;;;15.90;99.90;;;;;;4994009;28;20248;-59
2022/07/12 02:08:13;;;;;;;5.20;4.80;;;16.10;99.90;;;;;;5012131;28;20187;-59
2022/07/12 02:10:39;;;;;;;5.83;4.90;;;16.20;99.90;;;;;;5008147;28;20203;-59
2022/07/12 02:13:05;;;;;;;5.30;4.90;;;16.30;99.90;;;;;;5012850;28;20970;-59
2022/07/12 02:15:31;;;;;;;5.28;4.88;;;16.00;99.90;;;;;;5010713;28;20203;-59
2022/07/12 02:17:57;;;;;;;5.80;5.30;;;15.80;99.90;;;;;;5009981;28;20209;-59
2022/07/12 02:20:23;;;;;;;4.97;4.57;;;16.00;99.90;;;;;;5005828;28;20729;-58
2022/07/12 02:22:49;;;;;;;5.27;4.83;;;16.10;99.90;;;;;;5012502;28;20253;-59
2022/07/12 02:25:14;;;;;;;4.80;4.40;;;15.90;99.90;;;;;;5003527;28;20438;-59
2022/07/12 02:27:41;;;;;;;4.70;4.30;;;15.90;99.90;;;;;;5005441;28;20727;-59
2022/07/12 02:30:08;;;;;;;5.75;5.35;;;16.00;99.90;;;;;;5007823;28;20179;-59
2022/07/12 02:32:33;;;;;;;4.75;4.35;;;16.20;99.90;;;;;;5010977;28;20238;-59
2022/07/12 02:34:59;;;;;;;4.90;4.57;;;15.80;99.90;;;;;;5009819;28;20260;-59
2022/07/12 02:37:25;;;;;;;4.80;4.40;;;15.90;99.90;;;;;;5010033;28;20199;-59
2022/07/12 02:39:51;;;;;;;4.78;4.38;;;15.80;99.90;;;;;;5010777;28;20226;-59
2022/07/12 02:42:17;;;;;;;4.70;4.40;;;15.90;99.90;;;;;;5011516;28;20714;-58
2022/07/12 02:44:43;;;;;;;4.80;4.50;;;16.00;99.90;;;;;;5010435;28;20195;-58
2022/07/12 02:47:08;;;;;;;5.20;4.80;;;15.80;99.90;;;;;;5004195;28;20193;-58
2022/07/12 02:49:34;;;;;;;5.10;4.30;;;16.00;99.90;;;;;;5005351;28;20318;-59
2022/07/12 02:51:59;;;;;;;4.93;4.53;;;15.70;99.90;;;;;;5011467;28;20218;-59
2022/07/12 02:54:25;;;;;;;5.10;4.70;;;15.60;99.90;;;;;;5012034;28;20221;-59
2022/07/12 02:56:51;;;;;;;4.93;4.60;;;15.70;99.90;;;;;;5003897;28;20222;-59
2022/07/12 02:59:16;;;;;;;5.30;4.77;;;15.70;99.90;;;;;;5003307;28;20176;-59
2022/07/12 03:01:42;;;;;;;5.27;4.77;;;15.70;99.90;;;;;;5002072;28;20207;-59
2022/07/12 03:04:08;;;;;;;4.47;4.17;;;15.60;99.90;;;;;;5003831;28;20194;-58
2022/07/12 03:06:34;;;;;;;5.10;4.45;;;15.70;99.90;;;;;;5001511;28;20210;-59
2022/07/12 03:08:59;;;;;;;5.00;4.50;;;15.80;99.90;;;;;;5008723;28;20192;-59
2022/07/12 03:11:25;;;;;;;4.80;4.40;;;15.60;99.90;;;;;;4997754;28;20258;-59
2022/07/12 03:13:50;;;;;;;4.87;4.00;;;15.60;99.90;;;;;;5008137;28;20648;-59
2022/07/12 03:16:16;;;;;;;4.80;4.40;;;15.70;99.90;;;;;;5010928;28;20269;-58
2022/07/12 03:18:43;;;;;;;4.57;4.17;;;15.60;99.90;;;;;;5010394;28;20264;-59
2022/07/12 03:21:09;;;;;;;5.72;4.35;;;15.60;99.90;;;;;;5005542;28;20198;-59
2022/07/12 03:23:35;;;;;;;5.13;4.60;;;15.50;99.90;;;;;;5011859;28;20183;-59
2022/07/12 03:26:01;;;;;;;4.67;4.27;;;15.40;99.90;;;;;;5011711;28;20492;-59
2022/07/12 03:28:27;;;;;;;5.00;4.50;;;15.70;99.90;;;;;;5006154;28;20195;-59
2022/07/12 03:30:52;;;;;;;4.87;4.47;;;15.40;99.90;;;;;;5010954;28;20190;-60
2022/07/12 03:33:18;;;;;;;4.70;4.30;;;15.30;99.90;;;;;;5010941;28;20646;-60
2022/07/12 03:35:43;;;;;;;4.47;4.10;;;15.30;99.90;;;;;;5008566;28;20248;-59
2022/07/12 03:38:09;;;;;;;4.73;4.33;;;15.70;99.90;;;;;;5010667;28;20568;-59
2022/07/12 03:40:34;;;;;;;5.03;4.53;;;15.30;99.90;;;;;;5009925;28;20187;-59
2022/07/12 03:43:00;;;;;;;4.77;4.37;;;15.30;99.90;;;;;;5010748;28;20344;-58
2022/07/12 03:45:26;;;;;;;6.20;3.87;;;15.40;99.90;;;;;;5007823;28;20187;-59
2022/07/12 03:47:51;;;;;;;4.10;3.80;;;15.40;99.90;;;;;;5010976;28;20430;-59
2022/07/12 03:50:17;;;;;;;4.60;4.20;;;15.50;99.90;;;;;;5007083;28;20183;-59
2022/07/12 03:52:43;;;;;;;6.13;4.40;;;15.50;99.90;;;;;;5007223;28;20554;-59
2022/07/12 03:55:10;;;;;;;4.25;3.95;;;15.60;99.90;;;;;;4990345;28;20688;-59
2022/07/12 03:57:37;;;;;;;4.22;3.92;;;15.70;99.90;;;;;;5005534;28;20198;-59
2022/07/12 04:00:07;;;;;;;4.50;4.10;;;15.50;99.90;;;;;;5010518;28;20187;-59
2022/07/12 04:02:33;;;;;;;4.30;3.90;;;15.30;99.90;;;;;;5008431;28;20203;-59
2022/07/12 04:04:59;;;;;;;3.60;3.30;;;15.60;99.90;;;;;;5008308;28;20191;-59
2022/07/12 04:07:24;;;;;;;4.23;3.93;;;15.60;99.90;;;;;;5009339;28;20190;-59
2022/07/12 04:09:50;;;;;;;4.40;4.10;;;15.60;99.90;;;;;;5008423;28;20195;-59
2022/07/12 04:12:15;;;;;;;5.33;4.93;;;15.50;99.90;;;;;;5004098;28;20206;-58
2022/07/12 04:14:41;;;;;;;4.60;4.20;;;15.60;99.90;;;;;;5008738;28;20703;-58
2022/07/12 04:17:06;;;;;;;4.10;3.80;;;15.50;99.90;;;;;;5010749;28;20187;-58
2022/07/12 04:19:33;;;;;;;4.17;3.87;;;15.20;99.90;;;;;;5008333;28;20537;-59
2022/07/12 04:21:59;;;;;;;4.35;3.88;;;15.90;99.90;;;;;;5008147;28;20288;-59
2022/07/12 04:24:25;;;;;;;4.75;4.35;;;15.60;99.90;;;;;;5009772;28;20192;-59
2022/07/12 04:26:51;;;;;;;5.15;4.47;;;15.80;99.90;;;;;;5004345;28;20187;-58
2022/07/12 04:29:18;;;;;;;4.50;4.10;;;15.80;99.90;;;;;;5007647;28;20201;-57
2022/07/12 04:31:44;;;;;;;3.88;3.58;;;15.70;99.90;;;;;;5003547;28;20214;-60
2022/07/12 04:34:10;;;;;;;4.00;3.67;;;15.90;99.90;;;;;;5004285;28;20211;-59
2022/07/12 04:36:35;;;;;;;4.03;3.73;;;15.80;99.90;;;;;;5009518;28;20245;-60
2022/07/12 04:39:02;;;;;;;4.43;4.03;;;15.70;99.90;;;;;;5008640;28;20266;-60
2022/07/12 04:41:27;;;;;;;4.25;3.85;;;15.90;99.90;;;;;;5006306;28;20684;-59
2022/07/12 04:43:53;;;;;;;4.00;3.60;;;15.70;99.90;;;;;;5005575;28;20198;-60
2022/07/12 04:46:18;;;;;;;4.27;3.97;;;15.60;99.90;;;;;;5004246;28;20225;-60
2022/07/12 04:48:44;;;;;;;4.17;3.87;;;15.70;99.90;;;;;;5008398;28;20202;-60
2022/07/12 04:51:10;;;;;;;4.00;3.70;;;15.80;99.90;;;;;;5010354;28;20210;-61
2022/07/12 04:53:35;;;;;;;3.63;3.33;;;15.80;99.90;;;;;;5007129;28;20201;-60
2022/07/12 04:56:01;;;;;;;4.10;3.80;;;16.10;99.90;;;;;;5003569;28;20275;-61
2022/07/12 04:58:27;;;;;;;4.00;3.70;;;16.00;99.90;;;;;;5005170;28;20190;-61
2022/07/12 05:00:53;;;;;;;4.53;4.13;;;16.10;99.90;;;;;;5004980;28;20190;-61
2022/07/12 05:03:18;;;;;;;4.38;3.65;;;16.10;99.90;;;;;;5010187;28;20201;-61
2022/07/12 05:05:44;;;;;;;3.87;3.57;;;16.00;99.90;;;;;;5006621;28;20194;-61
2022/07/12 05:08:10;;;;;;;4.73;3.87;;;16.20;99.90;;;;;;5009734;28;20270;-61
2022/07/12 05:10:35;;;;;;;8.73;4.40;;;16.50;99.90;;;;;;5007100;28;20187;-60
2022/07/12 05:13:01;;;;;;;4.60;4.20;;;16.40;99.90;;;;;;5007657;28;20203;-61
2022/07/12 05:15:26;;;;;;;3.90;3.60;;;16.40;99.90;;;;;;5005130;28;20222;-60
2022/07/12 05:17:52;;;;;;;4.03;3.73;;;16.50;99.90;;;;;;5008533;28;20198;-61
2022/07/12 05:20:19;;;;;;;5.70;4.43;;;16.60;99.90;;;;;;5006953;28;20273;-61
2022/07/12 05:22:44;;;;;;;4.60;4.30;;;16.80;99.90;;;;;;5009889;28;20293;-60
2022/07/12 05:25:10;;;;;;;4.10;3.53;;;16.80;99.90;;;;;;5010030;28;20613;-60
2022/07/12 05:27:35;;;;;;;4.77;4.27;;;17.20;99.90;;;;;;5009433;28;20179;-60
2022/07/12 05:30:03;;;;;;;4.80;4.30;;;17.30;99.90;;;;;;5006545;28;20203;-59
2022/07/12 05:32:28;;;;;;;6.65;5.00;;;17.30;99.90;;;;;;5001128;28;20208;-61
2022/07/12 05:34:54;;;;;;;5.33;4.40;;;17.30;99.90;;;;;;5010548;28;20268;-60
2022/07/12 05:37:20;;;;;;;8.60;7.90;;;17.30;99.90;;;;;;4998858;28;20201;-60
2022/07/12 05:39:45;;;;;;;6.43;5.03;;;17.60;99.90;;;;;;5013302;28;20193;-61
2022/07/12 05:42:11;;;;;;;5.57;5.17;;;17.70;99.90;;;;;;5016818;28;20199;-61
2022/07/12 05:44:37;;;;;;;5.20;4.80;;;17.90;99.90;;;;;;4995503;28;20278;-60
2022/07/12 05:47:02;;;;;;;5.37;4.97;;;18.00;99.90;;;;;;5011682;28;20205;-60
2022/07/12 05:49:28;;;;;;;5.93;5.43;;;18.30;99.90;;;;;;5004783;28;20294;-63
2022/07/12 05:54:38;;;;;;;4.60;4.30;;;18.40;99.90;;;;;;5009082;28;20241;-59
2022/07/12 05:57:04;;;;;;;5.87;5.27;;;18.60;99.90;;;;;;5013248;28;20564;-59
2022/07/12 05:59:30;;;;;;;5.40;4.90;;;18.70;99.90;;;;;;5011472;28;20451;-59
2022/07/12 06:01:56;;;;;;;8.05;5.40;;;18.80;99.90;;;;;;5011125;28;20714;-59
2022/07/12 06:04:22;;;;;;;5.30;4.80;;;19.00;99.90;;;;;;5010198;28;20219;-59
2022/07/12 06:06:47;;;;;;;4.77;4.37;;;19.00;99.90;;;;;;5011855;28;20622;-59
2022/07/12 06:09:13;;;;;;;6.53;5.00;;;19.00;99.90;;;;;;5011099;28;20286;-59
2022/07/12 06:11:39;;;;;;;5.10;4.23;;;19.20;99.90;;;;;;5009738;28;20210;-59
2022/07/12 06:14:04;;;;;;;4.07;3.70;;;19.20;99.90;;;;;;5012534;28;20633;-59
2022/07/12 06:16:30;;;;;;;6.60;4.70;;;19.30;99.90;;;;;;4997496;28;20187;-60
2022/07/12 06:18:55;;;;;;;13.67;12.30;;;19.40;99.90;;;;;;5005056;28;20680;-68
2022/07/12 06:21:21;;;;;;;7.00;6.30;;;19.50;99.90;;;;;;5007210;28;20272;-67
2022/07/12 06:23:47;;;;;;;6.50;5.90;;;19.60;99.90;;;;;;5012000;28;20278;-66
2022/07/12 06:26:12;;;;;;;5.53;4.73;;;20.70;99.90;;;;;;5011198;28;20209;-67
2022/07/12 06:28:38;;;;;;;6.67;6.13;;;19.70;99.90;;;;;;5006671;28;20195;-66
2022/07/12 06:31:03;;;;;;;4.47;4.10;;;19.80;99.90;;;;;;5013968;28;20213;-62
2022/07/12 06:33:29;;;;;;;4.10;3.70;;;20.00;99.90;;;;;;4996239;28;20195;-65
2022/07/12 06:35:55;;;;;;;4.80;3.93;;;20.00;99.90;;;;;;5004737;28;20226;-67
2022/07/12 06:38:20;;;;;;;2.60;2.40;;;20.20;99.60;;;;;;5008548;28;20192;-66
2022/07/12 06:40:46;;;;;;;3.00;2.80;;;20.10;98.40;;;;;;5011841;28;20652;-66
2022/07/12 06:43:12;;;;;;;3.90;3.60;;;20.10;98.60;;;;;;5008727;28;20182;-67
2022/07/12 06:45:38;;;;;;;4.20;2.50;;;20.20;98.50;;;;;;5009628;28;20191;-67
2022/07/12 06:48:05;;;;;;;3.70;2.80;;;20.30;97.80;;;;;;4996392;28;20238;-66
2022/07/12 06:50:31;;;;;;;6.25;5.65;;;20.30;98.20;;;;;;4993165;28;20191;-65
2022/07/12 06:52:56;;;;;;;5.83;3.97;;;20.50;98.00;;;;;;5008972;28;20313;-66
2022/07/12 06:55:22;;;;;;;6.67;6.07;;;20.70;97.60;;;;;;5011284;28;20207;-65
2022/07/12 06:57:48;;;;;;;3.90;3.58;;;20.80;96.80;;;;;;5009111;28;20529;-65
2022/07/12 07:00:13;;;;;;;2.93;2.73;;;21.00;96.70;;;;;;5011528;28;20246;-65
2022/07/12 07:02:39;;;;;;;4.00;3.27;;;21.10;96.20;;;;;;5011142;28;20198;-65
2022/07/12 07:05:06;;;;;;;2.65;2.45;;;21.30;95.70;;;;;;4996279;28;20187;-66
2022/07/12 07:07:31;;;;;;;4.68;2.85;;;21.70;95.40;;;;;;5006318;28;20186;-66
2022/07/12 07:09:57;;;;;;;2.80;2.60;;;22.50;94.10;;;;;;5010902;28;20336;-63
2022/07/12 07:12:22;;;;;;;3.57;2.97;;;23.60;92.90;;;;;;5010660;28;20294;-63
2022/07/12 07:14:49;;;;;;;3.73;3.43;;;26.00;86.80;;;;;;5010628;28;20207;-66
2022/07/12 07:17:19;;;;;;;3.67;2.87;;;29.10;77.30;;;;;;5009218;28;20189;-66
2022/07/12 07:19:45;;;;;;;6.20;2.17;;;31.00;64.00;;;;;;5009610;28;20451;-68
2022/07/12 07:22:11;;;;;;;2.40;2.20;;;31.80;61.90;;;;;;5013546;28;20485;-69
2022/07/12 07:24:37;;;;;;;3.17;2.30;;;34.20;54.60;;;;;;5011705;28;20549;-67
2022/07/12 07:27:03;;;;;;;4.13;2.50;;;35.30;50.60;;;;;;5008890;28;21061;-69
2022/07/12 07:32:13;;;;;;;2.77;2.40;;;35.50;47.00;;;;;;5002951;28;20925;-67
2022/07/12 07:34:38;;;;;;;2.70;1.90;;;36.00;45.80;;;;;;5008282;28;20469;-65
2022/07/12 07:37:04;;;;;;;4.00;2.20;;;38.20;44.20;;;;;;5007188;28;20252;-64
2022/07/12 07:39:30;;;;;;;2.43;2.23;;;40.00;40.90;;;;;;5008307;28;20188;-63
2022/07/12 07:41:55;;;;;;;2.07;1.87;;;41.40;37.50;;;;;;5008420;28;20702;-67
2022/07/12 07:44:21;;;;;;;2.33;2.10;;;41.20;35.70;;;;;;5002335;28;20191;-66
2022/07/12 07:46:47;;;;;;;2.60;1.90;;;42.10;33.60;;;;;;5009926;28;20210;-63
2022/07/12 07:49:12;;;;;;;3.00;2.70;;;40.80;34.40;;;;;;5006730;28;20183;-68
2022/07/12 07:51:38;;;;;;;1.30;1.20;;;41.70;33.60;;;;;;5011077;28;20207;-62
2022/07/12 07:54:03;;;;;;;3.10;1.87;;;40.80;33.60;;;;;;5009947;28;20660;-65
2022/07/12 07:56:29;;;;;;;3.40;3.20;;;41.60;32.30;;;;;;5010329;28;20608;-61
2022/07/12 07:58:55;;;;;;;3.87;3.50;;;39.50;34.00;;;;;;5006663;28;20665;-66
2022/07/12 08:01:41;;;;;;;2.30;1.70;;;39.80;33.30;;;;;;5003518;28;20246;-65
2022/07/12 08:04:06;;;;;;;3.70;3.40;;;37.70;35.50;;;;;;5005061;28;20273;-68
2022/07/12 08:06:32;;;;;;;3.30;2.80;;;38.20;35.70;;;;;;5010358;28;20524;-65
2022/07/12 08:08:57;;;;;;;1.50;1.40;;;37.40;37.10;;;;;;5009519;28;20179;-65
2022/07/12 08:11:23;;;;;;;2.30;2.20;;;38.20;36.50;;;;;;5009587;28;20206;-62
2022/07/12 08:13:48;;;;;;;2.40;1.20;;;37.70;36.20;;;;;;5009812;28;20183;-63
2022/07/12 08:16:14;;;;;;;1.37;0.80;;;38.70;35.20;;;;;;5003576;28;20256;-62
2022/07/12 08:18:40;;;;;;;1.60;1.50;;;38.80;34.10;;;;;;5008502;28;20189;-65
2022/07/12 08:21:06;;;;;;;2.13;1.40;;;39.90;33.30;;;;;;5009262;28;20202;-63
2022/07/12 08:23:31;;;;;;;1.90;1.03;;;41.00;32.20;;;;;;5009328;28;20211;-61
2022/07/12 08:25:57;;;;;;;1.17;0.80;;;42.10;31.10;;;;;;5008969;28;20480;-61
2022/07/12 08:28:23;;;;;;;2.37;1.17;;;41.00;30.90;;;;;;5002280;28;20201;-62
2022/07/12 08:30:48;;;;;;;0.80;0.70;;;40.90;31.60;;;;;;5009965;28;20182;-61
2022/07/12 08:33:14;;;;;;;0.70;0.63;;;40.80;30.90;;;;;;5007994;28;20457;-61
2022/07/12 08:35:40;;;;;;;1.67;0.80;;;39.30;31.90;;;;;;5003048;28;20206;-61
2022/07/12 08:38:06;;;;;;;1.00;0.90;;;38.30;32.30;;;;;;5011521;28;20864;-62
2022/07/12 08:40:31;;;;;;;0.80;0.80;;;37.90;34.40;;;;;;5014457;28;20179;-62
2022/07/12 08:42:57;;;;;;;0.90;0.90;;;37.80;34.10;;;;;;5005463;28;20581;-62
2022/07/12 08:45:23;;;;;;;1.10;0.97;;;38.70;33.10;;;;;;5006373;28;20391;-62
2022/07/12 08:47:48;;;;;;;1.80;1.70;;;38.30;33.50;;;;;;5006383;28;20445;-61
2022/07/12 08:50:19;;;;;;;1.60;1.50;;;37.50;34.30;;;;;;5007014;28;20505;-60
2022/07/12 08:52:50;;;;;;;1.33;0.90;;;37.20;35.30;;;;;;5007868;28;20691;-62
2022/07/12 08:55:24;;;;;;;2.43;1.17;;;38.50;34.20;;;;;;5008611;28;20468;-66
2022/07/12 08:57:55;;;;;;;1.00;0.90;;;37.80;33.60;;;;;;5001360;28;20452;-66
2022/07/12 09:00:22;;;;;;;0.90;0.90;;;38.50;34.10;;;;;;5006645;28;21234;-61
2022/07/12 09:02:50;;;;;;;0.80;0.80;;;38.00;33.00;;;;;;5008961;28;20544;-60
2022/07/12 09:05:21;;;;;;;1.40;1.00;;;38.50;33.80;;;;;;5001416;28;20441;-59
2022/07/12 09:07:48;;;;;;;3.73;1.47;;;38.20;33.50;;;;;;5007983;28;20543;-60
2022/07/12 09:10:14;;;;;;;1.57;0.97;;;38.90;34.20;;;;;;5013600;28;20441;-61
2022/07/12 09:12:41;;;;;;;1.17;1.07;;;38.20;33.80;;;;;;5010834;28;20476;-60
2022/07/12 09:15:26;;;;;;;2.30;1.20;;;39.10;33.30;;;;;;5012560;28;20478;-60
2022/07/12 09:18:03;;;;;;;1.70;1.20;;;36.70;34.60;;;;;;5005994;28;20444;-59
2022/07/12 09:20:34;;;;;;;1.33;1.23;;;37.30;35.30;;;;;;5003591;28;20437;-59
2022/07/12 09:23:04;;;;;;;1.40;1.30;;;36.60;36.30;;;;;;5010817;28;20977;-60
2022/07/12 09:25:31;;;;;;;2.93;1.90;;;37.90;35.00;;;;;;5011683;28;20449;-60
2022/07/12 09:27:58;;;;;;;2.50;2.40;;;37.90;34.60;;;;;;5007302;28;20946;-61
2022/07/12 09:30:25;;;;;;;1.70;1.60;;;38.70;33.10;;;;;;5008147;28;20438;-61
2022/07/12 09:36:10;;;;;;;1.40;1.30;;;35.30;35.60;;;;;;5007992;28;20475;-60
2022/07/12 09:38:48;;;;;;;2.80;1.50;;;34.00;37.70;;;;;;5012204;28;20448;-60
2022/07/12 09:41:17;;;;;;;2.40;1.13;;;32.40;40.30;;;;;;5010752;28;20449;-60
2022/07/12 09:43:44;;;;;;;2.27;1.57;;;32.60;41.20;;;;;;5010552;28;20986;-60
2022/07/12 09:46:10;;;;;;;1.37;0.97;;;32.30;41.30;;;;;;5010374;28;20437;-61
2022/07/12 09:48:37;;;;;;;1.20;1.10;;;32.50;41.70;;;;;;5011641;28;20438;-59
2022/07/12 09:51:04;;;;;;;1.50;1.10;;;31.00;42.20;;;;;;5008136;28;20553;-60
2022/07/12 09:53:38;;;;;;;2.10;1.53;;;31.90;42.70;;;;;;5006790;28;20490;-60
2022/07/12 09:56:09;;;;;;;1.70;1.60;;;32.90;41.10;;;;;;4989581;28;20468;-58
2022/07/12 09:58:52;;;;;;;0.90;0.90;;;35.40;38.50;;;;;;5003057;28;21272;-59
2022/07/12 10:01:19;;;;;;;1.60;1.50;;;36.50;36.60;;;;;;5012609;28;20609;-59
2022/07/12 10:03:46;;;;;;;3.50;1.27;;;37.30;34.90;;;;;;5012099;28;20456;-59
2022/07/12 10:06:14;;;;;;;1.70;1.20;;;38.00;34.20;;;;;;5011201;28;20445;-59
2022/07/12 10:08:40;;;;;;;5.10;1.13;;;37.60;33.10;;;;;;5011523;28;22388;-59
2022/07/12 10:11:06;;;;;;;2.23;1.47;;;36.40;34.00;;;;;;4995366;28;20519;-59
2022/07/12 10:13:32;;;;;;;1.50;1.40;;;34.60;36.60;;;;;;5011157;28;20815;-59
2022/07/12 10:16:00;;;;;;;1.57;1.30;;;33.00;39.70;;;;;;5009231;28;20480;-59
2022/07/12 10:18:27;;;;;;;2.17;1.37;;;31.00;42.80;;;;;;5006730;28;20453;-58
2022/07/12 10:20:53;;;;;;;1.50;1.40;;;31.60;42.90;;;;;;5007217;28;20628;-58
2022/07/12 10:23:37;;;;;;;1.13;0.90;;;33.30;42.00;;;;;;5011026;28;20448;-56
2022/07/12 10:26:14;;;;;;;0.90;0.70;;;34.60;39.70;;;;;;5006406;28;20442;-56
2022/07/12 10:29:09;;;;;;;1.10;1.00;;;35.60;37.70;;;;;;5003431;28;20525;-57
2022/07/12 10:31:40;;;;;;;1.37;0.97;;;36.10;36.80;;;;;;5004175;28;20481;-57
2022/07/12 10:34:21;;;;;;;3.23;0.87;;;36.20;36.70;;;;;;4994620;28;20786;-57
2022/07/12 10:36:56;;;;;;;1.20;0.90;;;34.80;36.60;;;;;;5010122;28;20472;-57
2022/07/12 10:39:24;;;;;;;1.83;1.43;;;34.70;38.00;;;;;;5007649;28;20473;-58
2022/07/12 10:42:05;;;;;;;1.47;1.13;;;33.60;38.40;;;;;;5008175;28;20469;-57
2022/07/12 10:44:46;;;;;;;1.37;1.10;;;34.10;38.70;;;;;;5008276;28;20457;-58
2022/07/12 10:47:13;;;;;;;1.30;1.20;;;32.90;40.20;;;;;;5011094;28;20527;-58
2022/07/12 10:49:47;;;;;;;1.73;1.10;;;33.60;40.20;;;;;;4991792;28;20458;-56
2022/07/12 10:52:13;;;;;;;2.37;1.40;;;34.20;39.30;;;;;;5010442;28;20495;-57
2022/07/12 10:55:02;;;;;;;1.10;1.00;;;35.90;37.10;;;;;;5009338;28;20936;-57
2022/07/12 10:57:38;;;;;;;1.40;1.30;;;36.60;36.10;;;;;;4996588;28;20226;-57
2022/07/12 11:00:04;;;;;;;1.37;0.97;;;36.80;35.30;;;;;;5001750;28;20528;-58
2022/07/12 11:02:30;;;;;;;1.17;0.80;;;37.00;35.20;;;;;;5011625;28;20526;-58
2022/07/12 11:04:57;;;;;;;0.90;0.80;;;37.00;34.90;;;;;;5005151;28;20457;-58
2022/07/12 11:07:24;;;;;;;1.20;0.90;;;37.20;34.80;;;;;;5008722;28;20450;-57
2022/07/12 11:09:53;;;;;;;0.80;0.80;;;37.10;34.30;;;;;;5010126;28;21239;-56
2022/07/12 11:12:19;;;;;;;0.90;0.90;;;37.30;34.20;;;;;;5006130;28;20615;-57
2022/07/12 11:14:50;;;;;;;0.83;0.83;;;37.10;34.10;;;;;;5008560;28;20477;-57
2022/07/12 11:17:20;;;;;;;1.57;1.33;;;36.80;34.70;;;;;;5009088;28;20187;-58
2022/07/12 11:19:46;;;;;;;1.17;1.07;;;37.70;34.20;;;;;;5009563;28;20525;-57
2022/07/12 11:22:11;;;;;;;0.90;0.80;;;37.20;34.40;;;;;;5009040;28;20511;-57
2022/07/12 11:24:38;;;;;;;1.50;1.40;;;36.20;34.80;;;;;;5008554;28;20222;-55
2022/07/12 11:27:05;;;;;;;1.03;0.90;;;36.80;35.20;;;;;;5009031;28;20592;-57
2022/07/12 11:29:30;;;;;;;0.80;0.80;;;36.60;35.20;;;;;;5005565;28;20441;-56
2022/07/12 11:32:03;;;;;;;1.17;1.07;;;36.10;35.30;;;;;;5003752;28;20980;-57
2022/07/12 11:34:28;;;;;;;1.40;1.20;;;36.10;35.30;;;;;;5001219;28;20215;-63
2022/07/12 11:36:56;;;;;;;1.10;1.00;;;35.90;35.80;;;;;;5005382;28;20497;-61
2022/07/12 11:39:30;;;;;;;0.70;0.70;;;35.30;35.70;;;;;;5007427;28;20225;-60
2022/07/12 11:41:57;;;;;;;1.20;1.10;;;34.90;36.60;;;;;;5009984;28;20461;-61
2022/07/12 11:44:47;;;;;;;1.10;1.00;;;35.10;36.90;;;;;;5007381;28;20775;-61
2022/07/12 11:47:15;;;;;;;1.40;0.70;;;34.30;36.60;;;;;;5007930;28;20472;-61
2022/07/12 11:49:52;;;;;;;0.90;0.80;;;34.30;37.90;;;;;;4986141;28;20455;-60
2022/07/12 11:52:19;;;;;;;1.17;0.90;;;34.10;37.90;;;;;;5008015;28;20492;-60
2022/07/12 11:54:46;;;;;;;1.67;1.57;;;33.20;38.40;;;;;;5010773;28;20478;-60
2022/07/12 11:57:13;;;;;;;1.23;1.07;;;32.80;39.50;;;;;;5003042;28;20464;-60
2022/07/12 11:59:39;;;;;;;1.30;0.83;;;31.20;40.80;;;;;;5008778;28;20433;-60
2022/07/12 12:02:11;;;;;;;1.93;1.10;;;30.20;42.30;;;;;;5008216;28;20568;-59
2022/07/12 12:04:48;;;;;;;3.30;1.37;;;30.20;43.80;;;;;;5009192;28;20453;-59
2022/07/12 12:07:16;;;;;;;0.90;0.73;;;29.80;44.60;;;;;;5002504;28;20448;-58
2022/07/12 12:10:03;;;;;;;0.80;0.80;;;29.20;45.30;;;;;;5009897;28;20465;-59
2022/07/12 12:12:48;;;;;;;3.70;0.83;;;28.70;46.00;;;;;;5009629;28;20478;-58
2022/07/12 12:15:16;;;;;;;0.83;0.80;;;28.40;46.70;;;;;;5003514;28;21015;-58
2022/07/12 12:17:58;;;;;;;0.90;0.80;;;28.10;48.00;;;;;;5009491;28;20467;-59
2022/07/12 12:20:29;;;;;;;1.07;0.97;;;27.90;47.90;;;;;;5000464;28;20453;-59
2022/07/12 12:22:57;;;;;;;0.73;0.73;;;27.80;49.00;;;;;;5008686;28;20461;-65
2022/07/12 12:25:24;;;;;;;1.20;0.90;;;27.80;48.20;;;;;;5005790;28;20845;-65
2022/07/12 12:27:57;;;;;;;1.40;0.70;;;27.70;49.00;;;;;;5000772;28;20465;-60
2022/07/12 12:30:24;;;;;;;0.70;0.70;;;27.60;48.60;;;;;;4999126;28;20451;-60
2022/07/12 12:32:58;;;;;;;0.80;0.70;;;27.50;47.60;;;;;;5009141;28;20474;-60
2022/07/12 12:35:37;;;;;;;0.70;0.63;;;27.50;47.30;;;;;;4997853;28;20573;-59
2022/07/12 12:38:10;;;;;;;0.80;0.80;;;27.20;47.90;;;;;;4999423;28;20472;-60
2022/07/12 12:40:37;;;;;;;0.90;0.80;;;27.30;48.70;;;;;;5000945;28;20437;-60
2022/07/12 12:43:07;;;;;;;2.00;0.90;;;27.40;47.90;;;;;;5008735;28;20457;-59
2022/07/12 12:45:33;;;;;;;1.87;0.97;;;27.10;47.60;;;;;;5004468;28;20441;-59
2022/07/12 12:48:05;;;;;;;1.43;0.70;;;26.90;47.40;;;;;;5008035;28;20600;-60
2022/07/12 12:50:37;;;;;;;0.80;0.80;;;26.90;48.50;;;;;;5004048;28;20476;-61
2022/07/12 12:53:07;;;;;;;0.97;0.83;;;26.90;49.30;;;;;;5000592;28;20824;-60
2022/07/12 12:55:33;;;;;;;0.90;0.70;;;27.10;49.50;;;;;;5007911;28;20989;-60
2022/07/12 12:57:58;;;;;;;0.90;0.80;;;27.20;49.50;;;;;;5007002;28;20445;-61